Time;durP1;ratioP1;P1;durP2;ratioP2;P2;SDS_P1;SDS_P2;PMS_P1;PMS_P2;Temp;Humidity;BMP_temperature;BMP_pressure;BME280_temperature;BME280_humidity;BME280_pressure;Samples;Min_cycle;Max_cycle;Signal;HPM_P1;HPM_P2
2022/09/13 00:01:12;;;;;;;44.42;31.85;;;;;;;;;;5052739;28;20404;-76
2022/09/13 00:03:38;;;;;;;43.33;32.53;;;;;;;;;;5016902;28;20419;-77
2022/09/13 00:06:12;;;;;;;44.90;31.67;;;;;;;;;;5014940;28;20475;-77
2022/09/13 00:08:38;;;;;;;47.13;34.38;;;;;;;;;;5015511;28;20416;-77
2022/09/13 00:11:04;;;;;;;45.70;34.42;;;;;;;;;;5028805;28;20415;-77
2022/09/13 00:13:31;;;;;;;51.72;35.55;;;;;;;;;;5012430;28;20420;-76
2022/09/13 00:15:57;;;;;;;49.50;35.90;;;;;;;;;;5023581;28;20471;-76
2022/09/13 00:18:24;;;;;;;52.05;36.20;;;;;;;;;;5030742;28;20850;-76
2022/09/13 00:20:50;;;;;;;50.80;35.80;;;;;;;;;;5052022;28;20431;-76
2022/09/13 00:23:15;;;;;;;50.30;35.63;;;17.70;99.90;;;;;;5035211;28;20470;-76
2022/09/13 00:25:41;;;;;;;47.92;34.50;;;;;;;;;;5035520;28;20522;-76
2022/09/13 00:28:08;;;;;;;46.15;33.55;;;;;;;;;;5031907;28;20405;-76
2022/09/13 00:30:34;;;;;;;45.67;33.08;;;18.00;99.90;;;;;;5104604;28;20414;-76
2022/09/13 00:33:03;;;;;;;45.83;32.17;;;;;;;;;;5086191;28;20775;-76
2022/09/13 00:35:30;;;;;;;47.00;32.80;;;17.80;99.90;;;;;;5097808;28;20422;-76
2022/09/13 00:37:58;;;;;;;43.80;30.20;;;17.90;99.90;;;;;;5089876;28;20426;-76
2022/09/13 00:40:24;;;;;;;42.75;29.77;;;;;;;;;;5060029;28;20405;-76
2022/09/13 00:42:50;;;;;;;38.85;28.90;;;17.80;99.90;;;;;;5072765;28;20427;-76
2022/09/13 00:45:17;;;;;;;40.53;28.70;;;;;;;;;;5076859;28;20409;-76
2022/09/13 00:48:00;;;;;;;36.05;26.75;;;18.00;99.90;;;;;;5075349;28;20904;-76
2022/09/13 00:50:32;;;;;;;40.97;28.42;;;;;;;;;;5095901;28;20683;-76
2022/09/13 00:53:08;;;;;;;40.85;27.60;;;17.70;99.90;;;;;;5110603;28;20990;-76
2022/09/13 00:55:41;;;;;;;39.47;27.75;;;18.10;99.90;;;;;;5094611;28;20426;-76
2022/09/13 00:58:15;;;;;;;39.85;27.98;;;17.80;99.90;;;;;;5105526;28;20426;-76
2022/09/13 01:00:42;;;;;;;39.90;27.90;;;17.90;99.90;;;;;;5111261;28;20415;-77
2022/09/13 01:03:11;;;;;;;35.90;25.98;;;17.90;99.90;;;;;;5076987;28;20924;-76
2022/09/13 01:05:46;;;;;;;41.38;27.20;;;17.70;99.90;;;;;;5093054;28;20412;-76
2022/09/13 01:08:21;;;;;;;40.17;28.73;;;;;;;;;;5076654;28;20471;-76
2022/09/13 01:10:49;;;;;;;43.58;28.30;;;17.70;99.90;;;;;;5109642;27;20930;-76
2022/09/13 01:13:31;;;;;;;40.70;28.17;;;17.80;99.90;;;;;;5076204;28;20921;-76
2022/09/13 01:15:58;;;;;;;49.60;29.23;;;17.70;99.90;;;;;;5071334;28;20416;-76
2022/09/13 01:18:24;;;;;;;41.15;29.17;;;;;;;;;;5079942;27;20417;-76
2022/09/13 01:20:59;;;;;;;42.33;29.38;;;;;;;;;;5081104;28;20433;-76
2022/09/13 01:23:42;;;;;;;42.63;29.67;;;17.90;99.90;;;;;;5093389;27;20434;-75
2022/09/13 01:26:32;;;;;;;43.83;29.63;;;18.00;99.90;;;;;;5116434;27;21022;-76
2022/09/13 01:29:05;;;;;;;42.88;29.15;;;17.80;99.90;;;;;;5115669;27;20395;-75
2022/09/13 01:31:53;;;;;;;42.35;28.42;;;;;;;;;;5088268;28;20499;-75
2022/09/13 01:34:39;;;;;;;38.40;26.73;;;;;;;;;;5101486;27;20415;-75
2022/09/13 01:37:05;;;;;;;39.28;27.27;;;;;;;;;;5104857;28;20798;-75
2022/09/13 01:39:42;;;;;;;39.83;26.70;;;17.60;99.90;;;;;;5098517;27;20415;-75
2022/09/13 01:42:24;;;;;;;35.90;26.30;;;17.60;99.90;;;;;;5113857;27;20955;-75
2022/09/13 01:45:06;;;;;;;38.42;26.17;;;;;;;;;;5116294;27;20497;-75
2022/09/13 01:47:32;;;;;;;37.97;26.33;;;;;;;;;;5095891;27;20413;-76
2022/09/13 01:50:11;;;;;;;36.60;25.80;;;17.60;99.90;;;;;;5079906;28;20492;-76
2022/09/13 01:52:51;;;;;;;37.07;24.90;;;17.70;99.90;;;;;;5105086;27;20501;-76
2022/09/13 01:55:23;;;;;;;35.63;25.50;;;17.70;99.90;;;;;;5099262;27;20532;-76
2022/09/13 01:57:49;;;;;;;40.53;26.10;;;;;;;;;;5097226;27;20430;-76
2022/09/13 02:00:17;;;;;;;38.17;25.85;;;17.50;99.90;;;;;;5108454;28;21012;-76
2022/09/13 02:02:46;;;;;;;38.95;26.50;;;17.60;99.90;;;;;;5095479;27;20906;-76
2022/09/13 02:05:43;;;;;;;39.17;27.10;;;17.40;99.90;;;;;;5113926;27;20446;-77
2022/09/13 02:08:31;;;;;;;39.75;27.55;;;17.80;99.90;;;;;;5098088;27;20437;-77
2022/09/13 02:11:07;;;;;;;39.40;26.85;;;17.70;99.90;;;;;;5096658;27;21523;-77
2022/09/13 02:13:37;;;;;;;40.40;26.95;;;17.60;99.90;;;;;;5103228;28;20416;-77
2022/09/13 02:16:18;;;;;;;40.22;27.77;;;;;;;;;;5075025;28;20743;-76
2022/09/13 02:18:52;;;;;;;42.38;27.65;;;17.60;99.90;;;;;;5073415;28;20433;-76
2022/09/13 02:21:22;;;;;;;39.50;27.42;;;17.80;99.90;;;;;;5107114;27;20423;-76
2022/09/13 02:24:04;;;;;;;40.72;28.08;;;17.40;99.90;;;;;;5113055;27;20505;-77
2022/09/13 02:26:31;;;;;;;43.30;29.38;;;;;;;;;;5102148;28;20777;-77
2022/09/13 02:29:01;;;;;;;42.20;28.75;;;17.30;99.90;;;;;;5074733;27;20401;-76
2022/09/13 02:31:32;;;;;;;43.53;29.02;;;;;;;;;;5100072;28;20411;-76
2022/09/13 02:34:02;;;;;;;49.83;31.20;;;17.40;99.90;;;;;;5099170;28;21061;-76
2022/09/13 02:36:31;;;;;;;47.88;30.00;;;17.40;99.90;;;;;;5094227;28;20420;-77
2022/09/13 02:39:02;;;;;;;46.35;31.05;;;17.20;99.90;;;;;;5082560;28;20422;-77
2022/09/13 02:41:33;;;;;;;47.00;31.33;;;;;;;;;;5098086;27;20464;-76
2022/09/13 02:44:15;;;;;;;45.67;30.83;;;17.40;99.90;;;;;;5113995;27;20502;-76
2022/09/13 02:47:12;;;;;;;49.15;31.30;;;17.40;99.90;;;;;;5076807;28;20417;-76
2022/09/13 02:49:42;;;;;;;42.30;29.77;;;;;;;;;;5090516;27;20487;-76
2022/09/13 02:52:15;;;;;;;47.13;30.55;;;17.20;99.90;;;;;;5071082;28;20554;-76
2022/09/13 02:54:41;;;;;;;45.63;30.52;;;17.60;99.90;;;;;;5096794;27;20407;-76
2022/09/13 02:57:14;;;;;;;44.70;29.65;;;17.50;99.90;;;;;;5110200;27;20472;-76
2022/09/13 02:59:40;;;;;;;47.78;29.48;;;;;;;;;;5109253;27;20747;-76
2022/09/13 03:02:15;;;;;;;45.72;29.73;;;17.50;99.90;;;;;;5076797;27;20414;-76
2022/09/13 03:04:41;;;;;;;45.42;29.60;;;17.40;99.90;;;;;;5090968;27;20414;-76
2022/09/13 03:07:11;;;;;;;44.83;30.65;;;;;;;;;;5094211;28;20418;-76
2022/09/13 03:09:41;;;;;;;45.45;29.58;;;;;;;;;;5103952;27;20493;-76
2022/09/13 03:12:13;;;;;;;43.38;29.77;;;17.50;99.90;;;;;;5096248;27;20394;-76
2022/09/13 03:15:01;;;;;;;43.65;29.17;;;;;;;;;;5114943;27;20723;-76
2022/09/13 03:17:46;;;;;;;44.05;28.38;;;;;;;;;;5106039;28;20416;-76
2022/09/13 03:20:18;;;;;;;43.38;28.25;;;17.60;99.90;;;;;;5098056;27;20435;-76
2022/09/13 03:22:50;;;;;;;41.72;28.50;;;;;;;;;;5074160;28;20535;-76
2022/09/13 03:25:25;;;;;;;44.22;28.35;;;;;;;;;;5073128;28;20426;-76
2022/09/13 03:28:17;;;;;;;42.37;26.80;;;17.60;99.90;;;;;;5090084;28;20398;-76
2022/09/13 03:30:48;;;;;;;39.85;25.08;;;;;;;;;;5083136;27;20410;-76
2022/09/13 03:33:29;;;;;;;40.33;25.58;;;17.80;99.90;;;;;;5074065;28;20421;-78
2022/09/13 03:35:55;;;;;;;36.17;23.73;;;17.60;99.90;;;;;;5073828;28;20963;-78
2022/09/13 03:38:25;;;;;;;29.57;20.03;;;;;;;;;;5085574;27;20418;-77
2022/09/13 03:41:04;;;;;;;24.65;17.60;;;17.90;99.90;;;;;;5108222;27;20415;-77
2022/09/13 03:43:45;;;;;;;16.63;11.88;;;17.70;99.90;;;;;;5114182;27;21019;-77
2022/09/13 03:46:16;;;;;;;17.27;12.50;;;17.70;99.90;;;;;;5065681;28;20425;-77
2022/09/13 03:48:42;;;;;;;17.02;12.38;;;17.60;99.90;;;;;;5082551;27;20418;-78
2022/09/13 03:51:10;;;;;;;18.20;12.48;;;17.80;99.90;;;;;;5088191;28;20458;-78
2022/09/13 03:53:42;;;;;;;18.77;12.90;;;17.60;99.90;;;;;;5076900;28;20494;-78
2022/09/13 03:56:12;;;;;;;18.00;11.90;;;;;;;;;;5080682;28;20963;-77
2022/09/13 03:58:38;;;;;;;14.90;11.93;;;;;;;;;;5065468;28;20422;-78
2022/09/13 04:01:04;;;;;;;15.02;11.07;;;;;;;;;;5091497;28;20415;-78
2022/09/13 04:03:30;;;;;;;13.45;10.50;;;;;;;;;;5084816;27;20414;-77
2022/09/13 04:05:56;;;;;;;17.63;10.70;;;;;;;;;;5097310;27;20494;-78
2022/09/13 04:08:22;;;;;;;14.67;9.97;;;17.80;99.90;;;;;;5106384;28;20433;-77
2022/09/13 04:10:50;;;;;;;13.93;9.53;;;;;;;;;;5092848;28;20902;-77
2022/09/13 04:13:16;;;;;;;12.07;8.52;;;17.50;99.90;;;;;;5111354;28;20419;-77
2022/09/13 04:15:43;;;;;;;11.30;7.03;;;;;;;;;;5042828;28;20482;-77
2022/09/13 04:18:10;;;;;;;10.18;6.93;;;;;;;;;;5080620;28;20840;-77
2022/09/13 04:20:36;;;;;;;10.13;6.30;;;;;;;;;;5082274;28;20816;-77
2022/09/13 04:23:02;;;;;;;8.43;5.53;;;;;;;;;;5103519;28;20421;-77
2022/09/13 04:25:28;;;;;;;7.05;4.22;;;17.60;99.90;;;;;;5104364;28;20417;-77
2022/09/13 04:27:54;;;;;;;6.07;3.97;;;;;;;;;;5102462;28;20410;-77
2022/09/13 04:30:20;;;;;;;7.23;4.60;;;;;;;;;;5090822;28;20518;-77
2022/09/13 04:32:47;;;;;;;9.75;4.30;;;;;;;;;;5109089;28;20983;-77
2022/09/13 04:35:13;;;;;;;6.55;4.38;;;17.50;99.90;;;;;;5096681;28;20398;-77
2022/09/13 04:37:40;;;;;;;9.10;5.13;;;;;;;;;;5100024;28;20477;-77
2022/09/13 04:40:07;;;;;;;7.60;4.65;;;;;;;;;;5042779;28;20421;-77
2022/09/13 04:42:33;;;;;;;6.50;4.55;;;;;;;;;;5100944;27;20425;-79
2022/09/13 04:44:58;;;;;;;9.13;4.78;;;17.50;99.90;;;;;;5093402;28;20857;-78
2022/09/13 04:47:24;;;;;;;7.22;4.20;;;17.50;99.90;;;;;;5080151;28;20499;-79
2022/09/13 04:49:50;;;;;;;7.53;4.25;;;;;;;;;;5096988;28;20412;-78
2022/09/13 04:52:19;;;;;;;6.45;4.20;;;;;;;;;;5096317;28;20530;-78
2022/09/13 04:54:46;;;;;;;7.18;4.22;;;;;;;;;;5087248;27;20479;-78
2022/09/13 04:57:15;;;;;;;9.50;4.20;;;17.30;99.90;;;;;;5094009;27;20413;-78
2022/09/13 04:59:41;;;;;;;7.03;4.20;;;;;;;;;;5117355;27;20409;-79
2022/09/13 05:02:07;;;;;;;6.28;3.65;;;;;;;;;;5093825;27;20418;-79
2022/09/13 05:04:33;;;;;;;8.18;3.67;;;;;;;;;;5107303;28;20411;-78
2022/09/13 05:06:59;;;;;;;8.45;4.20;;;;;;;;;;5114830;27;20995;-78
2022/09/13 05:09:26;;;;;;;8.52;3.92;;;;;;;;;;5079818;28;20753;-78
2022/09/13 05:11:52;;;;;;;7.80;4.47;;;;;;;;;;5090015;27;20406;-78
2022/09/13 05:14:17;;;;;;;7.55;4.10;;;17.60;99.90;;;;;;5114649;27;20425;-76
2022/09/13 05:16:43;;;;;;;8.80;4.38;;;;;;;;;;5095875;28;20571;-76
2022/09/13 05:19:11;;;;;;;7.32;3.85;;;;;;;;;;5095982;27;20774;-77
2022/09/13 05:21:37;;;;;;;8.77;4.17;;;17.40;99.90;;;;;;5114048;27;20505;-78
2022/09/13 05:24:03;;;;;;;9.77;4.75;;;17.50;99.90;;;;;;5070379;27;20580;-77
2022/09/13 05:26:30;;;;;;;8.55;4.20;;;;;;;;;;5077722;28;20491;-77
2022/09/13 05:28:57;;;;;;;10.23;4.65;;;17.50;99.90;;;;;;5075733;28;20397;-77
2022/09/13 05:31:27;;;;;;;7.80;4.45;;;;;;;;;;5100889;27;20483;-76
2022/09/13 05:34:04;;;;;;;13.23;5.15;;;;;;;;;;5107226;27;20418;-77
2022/09/13 05:36:30;;;;;;;7.93;4.57;;;;;;;;;;5110694;27;20455;-78
2022/09/13 05:38:57;;;;;;;9.75;4.95;;;;;;;;;;5073877;28;20521;-78
2022/09/13 05:41:23;;;;;;;8.70;4.90;;;;;;;;;;5105814;27;20418;-79
2022/09/13 05:43:49;;;;;;;10.95;5.00;;;;;;;;;;5085429;28;20428;-79
2022/09/13 05:46:18;;;;;;;9.10;5.25;;;17.20;99.90;;;;;;5087083;27;20956;-80
2022/09/13 05:48:44;;;;;;;11.43;5.53;;;;;;;;;;5113781;27;20414;-79
2022/09/13 05:51:13;;;;;;;9.23;5.18;;;;;;;;;;5098219;27;20766;-79
2022/09/13 05:53:41;;;;;;;10.02;5.20;;;17.40;99.90;;;;;;5088815;28;20431;-79
2022/09/13 05:56:08;;;;;;;11.13;5.60;;;;;;;;;;5097525;27;20479;-79
2022/09/13 05:58:38;;;;;;;11.80;4.00;;;17.30;99.90;;;;;;5095159;27;20913;-79
2022/09/13 06:01:04;;;;;;;6.65;3.70;;;;;;;;;;5092766;28;20422;-80
2022/09/13 06:03:30;;;;;;;8.13;3.80;;;;;;;;;;5075271;28;20503;-76
2022/09/13 06:05:57;;;;;;;6.53;3.60;;;17.30;99.90;;;;;;5077863;27;20405;-78
2022/09/13 06:08:27;;;;;;;10.40;3.92;;;;;;;;;;5069743;27;20505;-77
2022/09/13 06:10:54;;;;;;;10.60;3.95;;;17.40;99.90;;;;;;5082937;27;20521;-76
2022/09/13 06:13:20;;;;;;;9.55;3.47;;;17.30;99.90;;;;;;5091558;27;20442;-75
2022/09/13 06:15:46;;;;;;;10.02;3.60;;;17.50;99.90;;;;;;5099513;27;20420;-75
2022/09/13 06:18:12;;;;;;;6.10;3.20;;;;;;;;;;5072991;28;20418;-75
2022/09/13 06:20:38;;;;;;;8.35;3.17;;;;;;;;;;5083931;27;20423;-75
2022/09/13 06:23:04;;;;;;;8.10;2.90;;;;;;;;;;5105676;27;20420;-75
2022/09/13 06:25:30;;;;;;;5.70;2.83;;;;;;;;;;5093756;28;20420;-75
2022/09/13 06:27:56;;;;;;;11.27;3.50;;;17.60;99.90;;;;;;5089412;27;20501;-76
2022/09/13 06:30:22;;;;;;;8.77;2.90;;;;;;;;;;5109606;27;20489;-76
2022/09/13 06:32:48;;;;;;;10.52;3.38;;;;;;;;;;5102428;27;20411;-75
2022/09/13 06:35:15;;;;;;;8.57;3.60;;;17.40;99.90;;;;;;5094518;27;20426;-75
2022/09/13 06:37:41;;;;;;;9.07;3.90;;;;;;;;;;5107252;27;20794;-75
2022/09/13 06:40:08;;;;;;;10.63;3.90;;;;;;;;;;5082511;27;20445;-75
2022/09/13 06:42:37;;;;;;;10.45;3.70;;;17.60;99.90;;;;;;5087881;28;20464;-75
2022/09/13 06:45:03;;;;;;;7.75;3.80;;;;;;;;;;5075966;28;20820;-75
2022/09/13 06:47:30;;;;;;;11.47;4.07;;;;;;;;;;5092529;27;20437;-75
2022/09/13 06:49:56;;;;;;;13.27;4.15;;;;;;;;;;5092650;27;20415;-75
2022/09/13 06:52:22;;;;;;;11.40;3.70;;;;;;;;;;5108385;27;20410;-75
2022/09/13 06:54:48;;;;;;;12.63;4.05;;;17.60;99.90;;;;;;5102175;27;20917;-75
2022/09/13 06:57:14;;;;;;;11.37;3.43;;;;;;;;;;5112536;27;20422;-75
2022/09/13 06:59:40;;;;;;;9.95;3.35;;;;;;;;;;5133208;27;20894;-75
2022/09/13 07:02:06;;;;;;;9.43;3.50;;;;;;;;;;5111731;27;20792;-75
2022/09/13 07:04:32;;;;;;;9.35;3.38;;;18.20;99.90;;;;;;5113595;28;20411;-75
2022/09/13 07:06:58;;;;;;;10.05;3.15;;;;;;;;;;5110628;27;20917;-76
2022/09/13 07:09:25;;;;;;;9.27;3.00;;;;;;;;;;5111163;27;20410;-75
2022/09/13 07:11:53;;;;;;;8.00;3.20;;;18.00;99.90;;;;;;5115058;27;20886;-76
2022/09/13 07:14:24;;;;;;;10.73;3.70;;;18.30;99.90;;;;;;5091045;27;20497;-76
2022/09/13 07:16:51;;;;;;;7.35;2.53;;;;;;;;;;5079304;28;20440;-77
2022/09/13 07:19:23;;;;;;;11.70;2.80;;;18.30;99.90;;;;;;5092007;28;20770;-76
2022/09/13 07:21:49;;;;;;;8.47;2.73;;;18.60;99.90;;;;;;5111601;28;20423;-76
2022/09/13 07:24:19;;;;;;;8.90;2.90;;;;;;;;;;5111112;27;20505;-76
2022/09/13 07:26:48;;;;;;;10.20;2.65;;;18.90;99.90;;;;;;5111953;27;20426;-77
2022/09/13 07:29:17;;;;;;;7.05;2.40;;;;;;;;;;5096843;27;20399;-76
2022/09/13 07:31:46;;;;;;;6.72;1.98;;;18.90;99.90;;;;;;5099465;28;20421;-77
2022/09/13 07:34:14;;;;;;;7.15;2.20;;;;;;;;;;5092218;27;20418;-77
2022/09/13 07:36:40;;;;;;;8.53;1.67;;;19.00;99.90;;;;;;5108341;28;20520;-77
2022/09/13 07:39:06;;;;;;;4.18;1.40;;;;;;;;;;5095100;28;20459;-76
2022/09/13 07:41:33;;;;;;;6.82;1.73;;;18.90;99.90;;;;;;5094101;28;20863;-76
2022/09/13 07:44:00;;;;;;;6.03;1.43;;;19.00;99.90;;;;;;5077218;28;20808;-76
2022/09/13 07:46:27;;;;;;;5.13;1.38;;;;;;;;;;5089318;28;20440;-81
2022/09/13 07:48:55;;;;;;;4.65;1.40;;;19.30;99.90;;;;;;5073978;28;20534;-81
2022/09/13 07:51:23;;;;;;;6.93;1.17;;;19.10;99.90;;;;;;5057029;28;20398;-80
2022/09/13 07:53:51;;;;;;;4.75;1.55;;;18.90;99.90;;;;;;5071595;28;20432;-79
2022/09/13 07:56:20;;;;;;;5.73;1.50;;;18.70;99.90;;;;;;5073602;28;20463;-79
2022/09/13 07:58:48;;;;;;;5.45;1.30;;;18.60;99.90;;;;;;5059628;28;20397;-80
2022/09/13 08:01:15;;;;;;;6.35;1.35;;;;;;;;;;5113863;27;20472;-79
2022/09/13 08:03:41;;;;;;;6.22;1.30;;;;;;;;;;5092572;28;20420;-79
2022/09/13 08:06:08;;;;;;;4.82;1.13;;;18.60;99.90;;;;;;5100488;28;20497;-80
2022/09/13 08:08:34;;;;;;;7.55;1.20;;;;;;;;;;5108738;28;20421;-76
2022/09/13 08:11:01;;;;;;;4.07;1.33;;;18.90;99.90;;;;;;5092605;28;20473;-79
2022/09/13 08:13:27;;;;;;;5.30;1.20;;;19.00;99.90;;;;;;5101305;28;20406;-79
2022/09/13 08:15:54;;;;;;;6.78;1.45;;;19.10;99.90;;;;;;5093394;27;20434;-79
2022/09/13 08:18:20;;;;;;;6.40;1.40;;;19.30;99.90;;;;;;5098089;28;20423;-79
2022/09/13 08:20:46;;;;;;;4.00;1.38;;;19.40;99.90;;;;;;5098721;27;20474;-79
2022/09/13 08:23:13;;;;;;;6.35;1.30;;;19.40;99.90;;;;;;5133346;27;20417;-79
2022/09/13 08:25:39;;;;;;;7.25;1.73;;;;;;;;;;5118043;27;20479;-81
2022/09/13 08:28:12;;;;;;;2.85;1.02;;;19.50;99.90;;;;;;5118219;27;20761;-80
2022/09/13 08:30:38;;;;;;;4.83;1.40;;;;;;;;;;5109830;27;20453;-79
2022/09/13 08:33:04;;;;;;;6.72;1.30;;;19.90;99.90;;;;;;5103606;28;20925;-80
2022/09/13 08:35:30;;;;;;;5.88;1.30;;;19.90;99.90;;;;;;5071843;27;20425;-80
2022/09/13 08:37:57;;;;;;;4.82;1.42;;;19.80;99.90;;;;;;5076395;28;20413;-80
2022/09/13 08:40:27;;;;;;;4.18;1.20;;;19.40;99.90;;;;;;5090937;28;20420;-81
2022/09/13 08:42:53;;;;;;;5.18;1.20;;;;;;;;;;5107757;27;20430;-81
2022/09/13 08:45:21;;;;;;;6.38;1.58;;;;;;;;;;5101252;28;20783;-80
2022/09/13 08:47:49;;;;;;;8.75;1.45;;;;;;;;;;5095099;28;20899;-80
2022/09/13 08:50:31;;;;;;;6.03;1.30;;;20.20;99.90;;;;;;5112609;27;20392;-79
2022/09/13 08:53:22;;;;;;;10.43;1.50;;;19.70;99.90;;;;;;5116733;27;20489;-78
2022/09/13 08:56:02;;;;;;;5.43;1.25;;;19.50;99.90;;;;;;5105698;28;20778;-81
2022/09/13 08:58:55;;;;;;;4.70;1.23;;;19.60;99.90;;;;;;5097071;28;20407;-78
2022/09/13 09:01:32;;;;;;;4.60;1.30;;;19.60;99.90;;;;;;5077345;28;20477;-79
2022/09/13 09:04:02;;;;;;;5.88;1.25;;;19.50;99.90;;;;;;5086969;28;20417;-78
2022/09/13 09:06:28;;;;;;;6.97;1.58;;;19.70;99.90;;;;;;5071093;27;20494;-78
2022/09/13 09:09:00;;;;;;;6.18;1.20;;;20.00;99.90;;;;;;5099563;27;20493;-81
2022/09/13 09:11:39;;;;;;;7.35;1.27;;;20.10;99.90;;;;;;5118523;27;20394;-81
2022/09/13 09:14:20;;;;;;;4.53;1.73;;;20.50;99.90;;;;;;5105588;28;20422;-80
2022/09/13 09:17:16;;;;;;;4.90;1.33;;;20.40;99.90;;;;;;5079465;28;20410;-80
2022/09/13 09:19:54;;;;;;;4.65;1.17;;;20.30;99.90;;;;;;5096262;28;20411;-80
2022/09/13 09:22:25;;;;;;;5.40;1.00;;;20.30;99.90;;;;;;5110267;27;20419;-81
2022/09/13 09:24:54;;;;;;;5.07;1.20;;;20.40;99.90;;;;;;5117096;27;20419;-81
2022/09/13 09:27:21;;;;;;;5.17;1.30;;;20.10;99.90;;;;;;5116859;27;20414;-81
2022/09/13 09:29:50;;;;;;;6.22;1.23;;;20.30;99.90;;;;;;5105799;27;20411;-81
2022/09/13 09:32:18;;;;;;;4.95;1.17;;;20.60;99.90;;;;;;5110793;28;20821;-81
2022/09/13 09:34:54;;;;;;;3.85;1.10;;;20.80;99.90;;;;;;5076890;28;20424;-81
2022/09/13 09:37:25;;;;;;;7.85;1.48;;;20.90;99.90;;;;;;5088232;27;20418;-81
2022/09/13 09:39:53;;;;;;;3.97;0.90;;;20.80;99.90;;;;;;5108321;27;20414;-81
2022/09/13 09:42:24;;;;;;;4.20;1.02;;;;;;;;;;5077048;28;20426;-82
2022/09/13 09:45:04;;;;;;;5.22;1.23;;;20.70;99.90;;;;;;5075717;28;20429;-80
2022/09/13 09:47:35;;;;;;;4.70;1.37;;;;;;;;;;5062246;28;20414;-80
2022/09/13 09:50:13;;;;;;;6.90;1.20;;;;;;;;;;5107539;28;20538;-80
2022/09/13 09:52:43;;;;;;;7.93;1.50;;;21.00;99.90;;;;;;5084616;28;20457;-79
2022/09/13 09:55:33;;;;;;;9.07;1.38;;;20.90;99.90;;;;;;5102808;27;20414;-80
2022/09/13 09:58:07;;;;;;;5.32;1.70;;;21.10;99.90;;;;;;5097348;28;20416;-80
2022/09/13 10:00:49;;;;;;;7.03;1.63;;;21.00;99.90;;;;;;5087418;28;20436;-81
2022/09/13 10:03:24;;;;;;;6.05;1.38;;;20.80;99.90;;;;;;5082446;28;20432;-80
2022/09/13 10:05:50;;;;;;;5.97;1.13;;;20.80;99.90;;;;;;5095523;28;20998;-80
2022/09/13 10:08:30;;;;;;;6.22;1.38;;;20.80;99.90;;;;;;5100438;28;20467;-75
2022/09/13 10:10:59;;;;;;;4.95;1.80;;;20.90;99.90;;;;;;5094533;28;20413;-76
2022/09/13 10:13:25;;;;;;;4.38;1.15;;;20.90;99.90;;;;;;5093166;28;20392;-75
2022/09/13 10:16:17;;;;;;;4.70;1.30;;;20.80;99.90;;;;;;5091048;28;20915;-75
2022/09/13 10:18:43;;;;;;;6.35;1.20;;;20.60;99.90;;;;;;5094680;28;20435;-75
2022/09/13 10:21:18;;;;;;;5.47;1.15;;;20.90;99.90;;;;;;5084073;27;20469;-74
2022/09/13 10:23:45;;;;;;;5.17;1.30;;;20.80;99.90;;;;;;5075585;28;20504;-74
2022/09/13 10:26:15;;;;;;;4.97;1.20;;;21.00;99.90;;;;;;5097213;27;20763;-74
2022/09/13 10:29:13;;;;;;;5.25;1.40;;;21.10;99.90;;;;;;5098239;27;20419;-74
2022/09/13 10:31:43;;;;;;;6.00;1.40;;;21.00;99.90;;;;;;5115616;27;20489;-74
2022/09/13 10:34:19;;;;;;;4.35;1.30;;;21.30;99.90;;;;;;5101595;28;20420;-74
2022/09/13 10:36:59;;;;;;;5.07;1.30;;;20.90;99.90;;;;;;5071610;28;20430;-74
2022/09/13 10:39:27;;;;;;;6.03;1.80;;;20.60;99.90;;;;;;5094252;28;20411;-75
2022/09/13 10:42:06;;;;;;;6.25;1.33;;;20.20;99.90;;;;;;5107138;27;20418;-75
2022/09/13 10:44:51;;;;;;;8.27;1.73;;;20.20;99.90;;;;;;5112128;27;20771;-75
2022/09/13 10:47:28;;;;;;;6.88;1.40;;;20.90;99.90;;;;;;5100054;27;20562;-74
2022/09/13 10:49:58;;;;;;;6.28;1.40;;;20.50;99.90;;;;;;5099850;27;20419;-75
2022/09/13 10:52:43;;;;;;;7.60;1.40;;;20.80;99.90;;;;;;5086562;28;20414;-75
2022/09/13 10:55:18;;;;;;;5.47;1.27;;;21.00;99.90;;;;;;5091205;28;20794;-75
2022/09/13 10:58:15;;;;;;;7.87;1.30;;;21.20;99.90;;;;;;5115425;27;20539;-75
2022/09/13 11:00:47;;;;;;;4.82;1.10;;;21.40;99.90;;;;;;5090909;27;20423;-75
2022/09/13 11:03:12;;;;;;;5.97;1.20;;;21.30;99.90;;;;;;5097961;27;20395;-75
2022/09/13 11:05:49;;;;;;;6.40;1.53;;;21.10;99.90;;;;;;5093333;28;20427;-75
2022/09/13 11:08:30;;;;;;;6.10;1.70;;;21.70;99.90;;;;;;5084899;28;20927;-80
2022/09/13 11:11:10;;;;;;;4.78;1.30;;;20.80;99.90;;;;;;5083118;28;20674;-81
2022/09/13 11:13:54;;;;;;;3.83;1.07;;;20.80;99.90;;;;;;5099795;27;20410;-80
2022/09/13 11:16:39;;;;;;;5.57;1.00;;;20.80;99.90;;;;;;5102877;28;20495;-81
2022/09/13 11:19:16;;;;;;;5.18;1.38;;;20.80;99.90;;;;;;5094768;28;20400;-80
2022/09/13 11:22:05;;;;;;;5.03;1.60;;;;;;;;;;5064255;28;20426;-81
2022/09/13 11:25:04;;;;;;;5.70;1.70;;;;;;;;;;5033059;28;20505;-82
2022/09/13 11:28:15;;;;;;;4.43;1.10;;;21.20;99.90;;;;;;5044126;28;20511;-81
2022/09/13 11:31:07;;;;;;;9.20;1.57;;;21.00;99.90;;;;;;5071971;28;20784;-81
2022/09/13 11:33:57;;;;;;;3.87;1.20;;;21.30;99.90;;;;;;5110885;27;20446;-81
2022/09/13 11:36:23;;;;;;;6.45;1.75;;;;;;;;;;5114245;27;20391;-81
2022/09/13 11:39:15;;;;;;;6.80;1.35;;;21.60;99.90;;;;;;5112477;27;20400;-81
2022/09/13 11:41:46;;;;;;;5.80;2.03;;;21.10;99.90;;;;;;5108914;28;20900;-82
2022/09/13 11:44:49;;;;;;;7.40;1.40;;;21.00;99.90;;;;;;5077732;28;20519;-81
2022/09/13 11:47:24;;;;;;;6.75;1.30;;;;;;;;;;5077649;28;20404;-81
2022/09/13 11:50:14;;;;;;;4.73;1.00;;;20.90;99.90;;;;;;5065888;28;20458;-81
2022/09/13 11:53:11;;;;;;;6.95;1.40;;;20.80;99.90;;;;;;5060292;28;20485;-82
2022/09/13 11:55:52;;;;;;;4.60;1.15;;;21.20;99.90;;;;;;5092297;28;20508;-81
2022/09/13 11:58:25;;;;;;;5.45;1.20;;;21.50;99.90;;;;;;5081151;28;20416;-82
2022/09/13 12:01:06;;;;;;;6.90;1.17;;;21.40;99.90;;;;;;5076900;28;20417;-82
2022/09/13 12:03:41;;;;;;;6.10;1.10;;;21.80;99.90;;;;;;5081609;28;20525;-82
2022/09/13 12:06:29;;;;;;;4.35;1.50;;;22.00;99.90;;;;;;5092213;28;20974;-82
2022/09/13 12:09:02;;;;;;;6.95;1.50;;;22.30;99.90;;;;;;5106076;28;20483;-81
2022/09/13 12:11:35;;;;;;;4.80;1.30;;;21.80;99.90;;;;;;5092095;28;20436;-81
2022/09/13 12:14:10;;;;;;;4.40;1.10;;;21.30;99.90;;;;;;5089906;28;20414;-81
2022/09/13 12:16:48;;;;;;;4.43;1.20;;;21.50;99.90;;;;;;5080450;28;20457;-81
2022/09/13 12:19:30;;;;;;;4.95;1.02;;;21.40;99.90;;;;;;5110209;28;20427;-81
2022/09/13 12:21:58;;;;;;;4.40;0.90;;;21.80;99.90;;;;;;5108014;28;20416;-81
2022/09/13 12:24:36;;;;;;;6.38;1.17;;;21.70;99.90;;;;;;5077562;28;20584;-82
2022/09/13 12:27:20;;;;;;;8.32;3.35;;;21.90;99.90;;;;;;5115450;28;20440;-83
2022/09/13 12:29:51;;;;;;;6.82;1.70;;;22.00;99.90;;;;;;5094038;28;20410;-82
2022/09/13 12:32:18;;;;;;;5.72;1.80;;;22.50;99.90;;;;;;5126863;28;20517;-82
2022/09/13 12:35:10;;;;;;;6.50;1.50;;;22.20;99.90;;;;;;5108294;28;20425;-82
2022/09/13 12:38:07;;;;;;;9.50;1.70;;;22.30;99.90;;;;;;5071226;28;20477;-82
2022/09/13 12:41:22;;;;;;;6.95;3.00;;;21.90;99.90;;;;;;5083345;28;20462;-83
2022/09/13 12:44:15;;;;;;;6.43;2.13;;;21.40;99.90;;;;;;5016096;28;20510;-82
2022/09/13 12:46:58;;;;;;;6.22;1.38;;;21.60;99.90;;;;;;5079684;28;20414;-83
2022/09/13 12:50:02;;;;;;;5.05;1.15;;;21.50;99.90;;;;;;5073377;28;20455;-83
2022/09/13 12:52:51;;;;;;;4.03;1.30;;;21.80;99.90;;;;;;5081701;28;20810;-82
2022/09/13 12:55:34;;;;;;;7.03;1.73;;;;;;;;;;5078524;28;20933;-82
2022/09/13 12:58:14;;;;;;;6.88;1.48;;;21.50;99.90;;;;;;5091242;28;20410;-81
2022/09/13 13:01:05;;;;;;;5.22;1.50;;;21.50;99.90;;;;;;5088304;28;20442;-81
2022/09/13 13:03:33;;;;;;;10.63;1.80;;;;;;;;;;5115308;27;20430;-81
2022/09/13 13:06:16;;;;;;;7.45;1.75;;;21.40;99.90;;;;;;5104741;27;20426;-81
2022/09/13 13:08:49;;;;;;;4.78;1.27;;;;;;;;;;5096798;28;20399;-81
2022/09/13 13:11:24;;;;;;;7.32;3.03;;;22.00;99.90;;;;;;5104075;27;20421;-82
2022/09/13 13:14:08;;;;;;;5.72;1.60;;;22.00;99.90;;;;;;5107736;28;20396;-81
2022/09/13 13:16:39;;;;;;;7.07;1.60;;;22.00;99.90;;;;;;5078970;27;20529;-82
2022/09/13 13:19:30;;;;;;;7.38;1.60;;;22.40;99.90;;;;;;5135727;27;20395;-82
2022/09/13 13:22:16;;;;;;;9.02;2.90;;;22.70;99.90;;;;;;5080700;28;20421;-82
2022/09/13 13:24:46;;;;;;;6.15;1.60;;;22.10;99.90;;;;;;5045852;28;20426;-82
2022/09/13 13:27:37;;;;;;;6.70;2.65;;;22.10;99.90;;;;;;5105555;27;20414;-82
2022/09/13 13:30:41;;;;;;;8.98;3.50;;;21.60;99.90;;;;;;5080370;28;20419;-82
2022/09/13 13:33:16;;;;;;;10.65;4.05;;;21.40;99.90;;;;;;5108778;27;20495;-82
2022/09/13 13:35:42;;;;;;;8.95;3.00;;;;;;;;;;5099891;27;20416;-83
2022/09/13 13:38:37;;;;;;;8.37;2.67;;;21.60;99.90;;;;;;5060637;27;20928;-82
2022/09/13 13:41:40;;;;;;;8.10;2.55;;;21.50;99.90;;;;;;5121996;27;20464;-82
2022/09/13 13:44:19;;;;;;;8.95;4.70;;;21.40;99.90;;;;;;5087782;27;20433;-81
2022/09/13 13:46:45;;;;;;;10.80;1.92;;;;;;;;;;5092563;28;20418;-81
2022/09/13 13:49:30;;;;;;;12.77;3.90;;;;;;;;;;5120041;27;20415;-81
2022/09/13 13:52:12;;;;;;;11.32;3.50;;;;;;;;;;5108306;27;20901;-81